Iowa Colony, Texas
Current Conditions -  °F | °C
As of 9:35 AM on Friday 24 Oct 2014 (Local Time) from KAXH Reporting Station
Clear Clear  
Wind Chill: 57°   Ceiling: Unl
Heat Index: 57°   Visibility: 10mi
Dew Point: 51°   Wind: 6mph
Humidity: 78%   Direction: 30°NNE
Pressure: 30.18"   Gusts: NA
Location:  29.4042°N, 95.4477°W
Report Text: KAXH 241435Z AUTO 03005KT 10SM CLR 14/10 A3018 RMK AO2 T01410104
Loading
Personal Weather Stations






























Interactive Weather Map
Tropical Storm Tracking
New forecast layout! Learn more

10-Day Weather Forecast

Advertisements
Track Severe Weather on mobile